createdAt,value
2023-03-06T00:02:01.553Z,66.34
2023-03-06T00:04:30.955Z,66.10
2023-03-06T00:06:57.757Z,66.32
2023-03-06T00:09:24.453Z,66.41
2023-03-06T00:11:51.024Z,66.57
2023-03-06T00:14:17.618Z,65.87
2023-03-06T00:16:44.237Z,65.78
2023-03-06T00:19:12.805Z,66.06
2023-03-06T00:21:45.390Z,66.15
2023-03-06T00:24:16.101Z,66.53
2023-03-06T00:26:43.397Z,66.46
2023-03-06T00:29:10.075Z,66.56
2023-03-06T00:31:37.105Z,66.71
2023-03-06T00:34:06.656Z,66.47
2023-03-06T00:36:36.006Z,66.19
2023-03-06T00:39:02.639Z,66.46
2023-03-06T00:41:29.314Z,66.69
2023-03-06T00:44:01.024Z,66.82
2023-03-06T00:46:27.656Z,66.74
2023-03-06T00:48:54.248Z,66.73
2023-03-06T00:51:23.331Z,66.88
2023-03-06T00:53:52.516Z,67.00
2023-03-06T00:56:20.066Z,67.36
2023-03-06T00:58:46.843Z,67.07
2023-03-06T01:01:13.840Z,67.08
2023-03-06T01:03:42.432Z,67.27
2023-03-06T01:06:09.205Z,67.30
2023-03-06T01:08:35.938Z,66.95
2023-03-06T01:11:02.638Z,67.44
2023-03-06T01:13:29.389Z,67.37
2023-03-06T01:16:07.432Z,67.43
2023-03-06T01:18:34.335Z,67.68
2023-03-06T01:21:00.997Z,67.80
2023-03-06T01:23:27.704Z,68.14
2023-03-06T01:25:56.987Z,68.37
2023-03-06T01:28:24.055Z,68.45
2023-03-06T01:30:53.461Z,68.25
2023-03-06T01:33:20.216Z,68.28
2023-03-06T01:35:46.967Z,68.16
2023-03-06T01:38:14.378Z,68.50
2023-03-06T01:40:41.070Z,68.39
2023-03-06T01:43:26.670Z,68.22
2023-03-06T01:46:12.065Z,68.32
2023-03-06T01:48:39.702Z,68.33
2023-03-06T01:51:06.505Z,68.35
2023-03-06T01:53:33.424Z,68.52
2023-03-06T01:56:00.145Z,68.39
2023-03-06T01:58:26.945Z,68.49
2023-03-06T02:00:53.640Z,68.58
2023-03-06T02:03:26.762Z,68.11
2023-03-06T02:05:57.396Z,68.45
2023-03-06T02:08:24.992Z,68.40
2023-03-06T02:11:00.922Z,68.00
2023-03-06T02:13:27.650Z,68.26
2023-03-06T02:15:54.420Z,68.25
2023-03-06T02:18:21.123Z,68.30
2023-03-06T02:20:54.220Z,68.40
2023-03-06T02:23:32.221Z,68.17
2023-03-06T02:26:00.998Z,68.22
2023-03-06T02:28:27.881Z,68.21
2023-03-06T02:30:56.468Z,68.04
2023-03-06T02:33:27.366Z,67.60
2023-03-06T02:36:02.911Z,67.45
2023-03-06T02:38:42.262Z,67.38
2023-03-06T02:41:10.726Z,67.32
2023-03-06T02:43:43.490Z,67.51
2023-03-06T02:46:12.735Z,67.35
2023-03-06T02:48:39.515Z,67.55
2023-03-06T02:51:06.779Z,67.67
2023-03-06T02:53:36.451Z,67.37
2023-03-06T02:56:03.153Z,67.33
2023-03-06T02:58:29.880Z,67.15
2023-03-06T03:00:56.501Z,67.41
2023-03-06T03:03:23.292Z,67.57
2023-03-06T03:05:50.113Z,67.21
2023-03-06T03:08:16.883Z,66.75
2023-03-06T03:10:43.670Z,66.53
2023-03-06T03:13:12.649Z,66.47
2023-03-06T03:15:39.354Z,66.83
2023-03-06T03:18:06.020Z,65.97
2023-03-06T03:20:33.060Z,66.12
2023-03-06T03:23:02.932Z,66.30
2023-03-06T03:25:32.363Z,66.25
2023-03-06T03:28:04.553Z,66.00
2023-03-06T03:30:33.827Z,65.81
2023-03-06T03:33:03.587Z,64.79
2023-03-06T03:35:33.105Z,64.03
2023-03-06T03:37:59.987Z,64.04
2023-03-06T03:40:28.959Z,64.11
2023-03-06T03:42:55.528Z,64.17
2023-03-06T03:45:27.741Z,64.52
2023-03-06T03:47:57.047Z,64.91
2023-03-06T03:50:25.468Z,65.04
2023-03-06T03:52:54.446Z,65.12
2023-03-06T03:55:21.210Z,65.43
2023-03-06T03:57:47.907Z,65.47
2023-03-06T04:00:18.410Z,65.70
2023-03-06T04:02:45.271Z,65.84
2023-03-06T04:05:14.916Z,65.90
2023-03-06T04:07:42.731Z,66.32
2023-03-06T04:10:10.792Z,66.88
2023-03-06T04:12:37.833Z,67.12
2023-03-06T04:15:10.351Z,67.16
2023-03-06T04:17:42.172Z,68.32
2023-03-06T04:20:14.516Z,67.97
2023-03-06T04:22:44.338Z,68.92
2023-03-06T04:25:15.524Z,68.79
2023-03-06T04:27:42.148Z,68.94
2023-03-06T04:30:09.397Z,69.30
2023-03-06T04:32:36.126Z,69.58
2023-03-06T04:35:05.458Z,69.90
2023-03-06T04:37:32.192Z,70.14
2023-03-06T04:39:58.872Z,70.32
2023-03-06T04:42:25.535Z,70.88
2023-03-06T04:44:52.284Z,70.78
2023-03-06T04:47:19.419Z,70.91
2023-03-06T04:49:46.537Z,70.74
2023-03-06T04:52:16.064Z,70.94
2023-03-06T04:54:46.855Z,70.73
2023-03-06T04:57:14.281Z,70.71
2023-03-06T04:59:40.899Z,70.77
2023-03-06T05:02:07.740Z,70.81
2023-03-06T05:04:38.699Z,70.85
2023-03-06T05:07:05.456Z,71.04
2023-03-06T05:09:38.252Z,70.65
2023-03-06T05:12:08.858Z,70.57
2023-03-06T05:14:38.184Z,70.86
2023-03-06T05:17:04.850Z,70.86
2023-03-06T05:19:31.398Z,70.66
2023-03-06T05:21:58.091Z,70.75
2023-03-06T05:24:24.774Z,70.53
2023-03-06T05:26:51.408Z,70.61
2023-03-06T05:29:21.326Z,70.46
2023-03-06T05:31:47.995Z,70.44
2023-03-06T05:34:16.120Z,70.12
2023-03-06T05:36:43.327Z,69.97
2023-03-06T05:39:10.069Z,69.94
2023-03-06T05:41:36.671Z,69.87
2023-03-06T05:44:03.333Z,69.88
2023-03-06T05:46:30.008Z,69.72
2023-03-06T05:48:57.918Z,70.08
2023-03-06T05:51:27.840Z,70.38
2023-03-06T05:53:54.448Z,70.47
2023-03-06T05:56:23.438Z,70.32
2023-03-06T05:58:52.563Z,69.97
2023-03-06T06:01:20.464Z,69.98
2023-03-06T06:03:47.669Z,69.63
2023-03-06T06:06:15.726Z,69.51
2023-03-06T06:08:45.042Z,69.43
2023-03-06T06:11:13.289Z,69.22
2023-03-06T06:13:40.666Z,69.06
2023-03-06T06:16:19.477Z,69.38
2023-03-06T06:18:46.510Z,69.03
2023-03-06T06:21:15.942Z,68.86
2023-03-06T06:23:42.647Z,68.69
2023-03-06T06:26:11.691Z,68.32
2023-03-06T06:28:38.345Z,68.05
2023-03-06T06:31:12.346Z,67.56
2023-03-06T06:33:41.805Z,67.42
2023-03-06T06:36:21.693Z,67.02
2023-03-06T06:38:49.665Z,66.85
2023-03-06T06:44:08.444Z,66.31
2023-03-06T06:47:20.913Z,66.08
2023-03-06T06:49:25.904Z,65.67
2023-03-06T06:51:52.622Z,65.29
2023-03-06T06:54:25.173Z,65.09
2023-03-06T06:56:52.177Z,64.14
2023-03-06T06:59:22.334Z,63.66
2023-03-06T07:01:51.636Z,62.63
2023-03-06T07:04:21.322Z,61.95
2023-03-06T07:06:50.568Z,62.23
2023-03-06T07:09:20.188Z,61.93
2023-03-06T07:11:46.823Z,61.78
2023-03-06T07:14:13.837Z,61.08
2023-03-06T07:16:42.237Z,60.82
2023-03-06T07:19:10.955Z,60.74
2023-03-06T07:21:37.671Z,61.12
2023-03-06T07:24:05.982Z,60.68
2023-03-06T07:26:34.649Z,60.54
2023-03-06T07:29:03.830Z,60.59
2023-03-06T07:31:32.320Z,60.16
2023-03-06T07:33:59.056Z,59.83
2023-03-06T07:36:28.083Z,59.72
2023-03-06T07:38:57.598Z,60.02
2023-03-06T07:41:24.259Z,60.12
2023-03-06T07:43:53.346Z,60.13
2023-03-06T07:46:20.036Z,59.07
2023-03-06T07:48:46.658Z,58.18
2023-03-06T07:51:19.085Z,57.33
2023-03-06T07:53:46.668Z,57.08
2023-03-06T07:56:13.725Z,57.12
2023-03-06T07:58:43.382Z,57.21
2023-03-06T08:01:18.089Z,57.06
2023-03-06T08:03:44.831Z,56.86
2023-03-06T08:06:32.334Z,56.27
2023-03-06T08:08:59.807Z,56.14
2023-03-06T08:11:32.412Z,56.16
2023-03-06T08:13:59.548Z,55.78
2023-03-06T08:16:29.647Z,55.58
2023-03-06T08:18:59.707Z,54.48
2023-03-06T08:21:29.383Z,53.52
2023-03-06T08:23:56.314Z,52.60
2023-03-06T08:26:30.980Z,52.51
2023-03-06T08:28:59.823Z,51.72
2023-03-06T08:31:29.532Z,50.78
2023-03-06T08:33:59.896Z,50.03
2023-03-06T08:36:35.252Z,49.33
2023-03-06T08:39:05.183Z,49.56
2023-03-06T08:41:33.475Z,49.52
2023-03-06T08:44:00.337Z,49.78
2023-03-06T08:46:28.870Z,49.26
2023-03-06T08:48:56.727Z,47.84
2023-03-06T08:51:28.019Z,48.21
2023-03-06T08:53:57.329Z,47.84
2023-03-06T08:56:28.408Z,47.47
2023-03-06T08:59:00.134Z,47.66
2023-03-06T09:01:30.982Z,47.62
2023-03-06T09:03:59.445Z,46.38
2023-03-06T09:06:29.812Z,46.25
2023-03-06T09:09:01.566Z,45.74
2023-03-06T09:11:28.392Z,45.72
2023-03-06T09:13:55.440Z,45.97
2023-03-06T09:16:22.113Z,45.55
2023-03-06T09:18:50.920Z,45.34
2023-03-06T09:21:17.406Z,46.17
2023-03-06T09:23:46.271Z,46.32
2023-03-06T09:26:13.079Z,45.89
2023-03-06T09:28:42.842Z,45.87
2023-03-06T09:31:11.644Z,45.38
2023-03-06T09:33:38.583Z,44.17
2023-03-06T09:36:16.234Z,44.46
2023-03-06T09:38:42.813Z,43.97
2023-03-06T09:41:11.885Z,44.56
2023-03-06T09:43:40.680Z,43.86
2023-03-06T09:46:16.043Z,44.53
2023-03-06T09:48:45.748Z,44.05
2023-03-06T09:51:23.748Z,43.70
2023-03-06T09:54:10.183Z,43.28
2023-03-06T09:56:37.266Z,43.08
2023-03-06T09:59:25.668Z,42.64
2023-03-06T10:02:10.768Z,42.56
2023-03-06T10:04:59.354Z,43.07
2023-03-06T10:07:35.266Z,42.93
2023-03-06T10:10:06.514Z,41.99
2023-03-06T10:12:41.428Z,41.58
2023-03-06T10:15:10.700Z,42.12
2023-03-06T10:17:46.918Z,42.06
2023-03-06T10:20:27.934Z,41.67
2023-03-06T10:23:01.267Z,42.07
2023-03-06T10:25:37.515Z,41.83
2023-03-06T10:28:18.226Z,41.25
2023-03-06T10:30:50.982Z,41.12
2023-03-06T10:33:47.209Z,41.17
2023-03-06T10:36:25.991Z,41.00
2023-03-06T10:38:56.091Z,40.25
2023-03-06T10:41:28.301Z,40.66
2023-03-06T10:44:00.986Z,40.29
2023-03-06T10:46:31.696Z,39.77
2023-03-06T10:49:01.783Z,39.91
2023-03-06T10:51:33.832Z,40.06
2023-03-06T10:54:06.113Z,39.70
2023-03-06T10:56:40.871Z,40.02
2023-03-06T10:59:28.234Z,40.30
2023-03-06T11:02:08.853Z,39.97
2023-03-06T11:04:37.848Z,40.42
2023-03-06T11:07:05.755Z,40.10
2023-03-06T11:09:33.630Z,39.69
2023-03-06T11:12:18.820Z,39.84
2023-03-06T11:14:45.624Z,39.60
2023-03-06T11:17:32.358Z,39.56
2023-03-06T11:20:18.914Z,39.35
2023-03-06T11:22:51.076Z,39.23
2023-03-06T11:25:31.805Z,38.91
2023-03-06T11:28:23.916Z,38.66
2023-03-06T11:30:56.158Z,38.14
2023-03-06T11:33:28.776Z,38.26
2023-03-06T11:36:03.427Z,37.69
2023-03-06T11:38:59.246Z,37.69
2023-03-06T11:41:25.839Z,37.63
2023-03-06T11:43:57.711Z,37.68
2023-03-06T11:46:45.934Z,37.41
2023-03-06T11:49:32.323Z,37.17
2023-03-06T11:52:13.628Z,37.26
2023-03-06T11:54:41.921Z,37.63
2023-03-06T11:57:18.253Z,37.38
2023-03-06T11:59:50.914Z,37.04
2023-03-06T12:02:17.446Z,38.09
2023-03-06T12:04:46.804Z,38.10
2023-03-06T12:07:19.788Z,37.10
2023-03-06T12:09:56.388Z,37.22
2023-03-06T12:12:49.611Z,37.56
2023-03-06T12:15:42.577Z,36.81
2023-03-06T12:18:28.950Z,36.86
2023-03-06T12:21:15.728Z,37.20
2023-03-06T12:23:42.292Z,37.67
2023-03-06T12:26:21.229Z,37.69
2023-03-06T12:28:52.698Z,38.20
2023-03-06T12:31:52.421Z,37.94
2023-03-06T12:34:39.596Z,38.00
2023-03-06T12:37:23.097Z,37.99
2023-03-06T12:40:17.689Z,37.86
2023-03-06T12:42:48.591Z,37.91
2023-03-06T12:45:28.325Z,36.81
2023-03-06T12:47:58.768Z,37.25
2023-03-06T12:50:25.278Z,37.11
2023-03-06T12:52:56.500Z,37.05
2023-03-06T12:55:25.909Z,37.22
2023-03-06T12:57:53.098Z,37.38
2023-03-06T13:00:38.189Z,37.48
2023-03-06T13:03:07.682Z,37.48
2023-03-06T13:05:48.447Z,37.77
2023-03-06T13:08:21.000Z,37.62
2023-03-06T13:11:20.228Z,36.71
2023-03-06T13:13:50.505Z,36.65
2023-03-06T13:16:42.025Z,36.38
2023-03-06T13:19:23.228Z,36.09
2023-03-06T13:21:56.689Z,36.58
2023-03-06T13:24:24.132Z,36.65
2023-03-06T13:26:55.202Z,36.43
2023-03-06T13:29:36.851Z,36.40
2023-03-06T13:32:03.569Z,36.19
2023-03-06T13:34:32.991Z,36.45
2023-03-06T13:37:24.452Z,36.91
2023-03-06T13:39:57.329Z,36.50
2023-03-06T13:42:29.643Z,35.40
2023-03-06T13:44:57.605Z,35.39
2023-03-06T13:47:39.171Z,35.29
2023-03-06T13:50:31.032Z,35.94
2023-03-06T13:53:06.340Z,35.67
2023-03-06T13:55:35.988Z,35.75
2023-03-06T13:58:09.261Z,35.47
2023-03-06T14:00:55.795Z,35.76
2023-03-06T14:03:41.350Z,35.81
2023-03-06T14:06:27.949Z,36.08
2023-03-06T14:08:57.268Z,35.78
2023-03-06T14:11:35.092Z,35.87
2023-03-06T14:14:04.112Z,35.87
2023-03-06T14:16:49.859Z,36.85
2023-03-06T14:19:17.529Z,37.54
2023-03-06T14:21:49.258Z,36.77
2023-03-06T14:24:17.482Z,36.44
2023-03-06T14:26:56.172Z,36.61
2023-03-06T14:29:26.487Z,37.33
2023-03-06T14:31:57.388Z,37.72
2023-03-06T14:34:29.392Z,38.00
2023-03-06T14:36:58.354Z,38.22
2023-03-06T14:39:39.180Z,37.58
2023-03-06T14:42:19.511Z,37.61
2023-03-06T14:44:58.207Z,37.09
2023-03-06T14:47:29.015Z,37.43
2023-03-06T14:50:16.888Z,37.58
2023-03-06T14:52:43.491Z,36.78
2023-03-06T14:55:20.884Z,36.51
2023-03-06T14:57:52.997Z,36.67
2023-03-06T15:00:31.419Z,36.87
2023-03-06T15:03:00.077Z,36.07
2023-03-06T15:05:31.468Z,36.41
2023-03-06T15:08:09.177Z,36.44
2023-03-06T15:10:42.291Z,36.28
2023-03-06T15:13:22.393Z,36.17
2023-03-06T15:15:59.926Z,36.60
2023-03-06T15:18:33.665Z,36.51
2023-03-06T15:21:19.976Z,37.10
2023-03-06T15:23:51.026Z,37.23
2023-03-06T15:26:29.283Z,37.17
2023-03-06T15:29:08.301Z,37.41
2023-03-06T15:31:41.065Z,37.77
2023-03-06T15:34:07.863Z,37.77
2023-03-06T15:36:35.391Z,40.13
2023-03-06T15:39:06.056Z,41.16
2023-03-06T15:41:42.116Z,41.74
2023-03-06T15:44:11.742Z,41.82
2023-03-06T15:46:48.466Z,42.22
2023-03-06T15:49:17.069Z,42.99
2023-03-06T15:51:45.825Z,43.70
2023-03-06T15:54:15.188Z,44.31
2023-03-06T15:56:45.792Z,44.85
2023-03-06T15:59:26.346Z,46.35
2023-03-06T16:01:53.592Z,47.36
2023-03-06T16:04:20.265Z,48.63
2023-03-06T16:06:48.140Z,48.42
2023-03-06T16:09:20.270Z,48.62
2023-03-06T16:11:49.720Z,48.88
2023-03-06T16:14:21.190Z,49.06
2023-03-06T16:16:48.347Z,49.30
2023-03-06T16:19:27.749Z,49.84
2023-03-06T16:21:55.025Z,50.62
2023-03-06T16:24:32.201Z,51.18
2023-03-06T16:27:03.112Z,51.22
2023-03-06T16:29:30.116Z,51.20
2023-03-06T16:31:59.623Z,51.40
2023-03-06T16:34:28.296Z,51.38
2023-03-06T16:36:58.153Z,51.15
2023-03-06T16:39:26.685Z,51.08
2023-03-06T16:41:55.592Z,51.28
2023-03-06T16:44:22.156Z,51.72
2023-03-06T16:46:51.610Z,51.96
2023-03-06T16:49:19.872Z,52.37
2023-03-06T16:51:47.357Z,52.74
2023-03-06T16:54:16.566Z,52.82
2023-03-06T16:56:46.651Z,52.74
2023-03-06T16:59:16.513Z,53.57
2023-03-06T17:01:43.444Z,53.92
2023-03-06T17:04:14.679Z,53.87
2023-03-06T17:06:44.048Z,53.84
2023-03-06T17:09:14.437Z,53.70
2023-03-06T17:11:43.118Z,54.02
2023-03-06T17:14:09.772Z,54.34
2023-03-06T17:16:42.485Z,55.14
2023-03-06T17:19:11.318Z,55.25
2023-03-06T17:21:46.783Z,55.34
2023-03-06T17:24:15.555Z,55.40
2023-03-06T17:26:43.335Z,55.20
2023-03-06T17:29:12.042Z,55.06
2023-03-06T17:31:38.733Z,55.09
2023-03-06T17:34:10.947Z,55.42
2023-03-06T17:36:42.080Z,55.72
2023-03-06T17:39:08.593Z,55.69
2023-03-06T17:41:36.508Z,55.78
2023-03-06T17:44:03.124Z,55.86
2023-03-06T17:46:31.844Z,56.22
2023-03-06T17:49:00.718Z,56.25
2023-03-06T17:51:27.230Z,56.69
2023-03-06T17:53:54.013Z,57.18
2023-03-06T17:56:25.664Z,57.58
2023-03-06T17:58:54.586Z,58.52
2023-03-06T18:01:23.029Z,60.12
2023-03-06T18:03:50.510Z,59.49
2023-03-06T18:06:25.363Z,59.46
2023-03-06T18:08:53.050Z,59.56
2023-03-06T18:11:23.120Z,59.64
2023-03-06T18:13:53.001Z,60.13
2023-03-06T18:16:26.268Z,59.98
2023-03-06T18:18:58.146Z,60.10
2023-03-06T18:21:25.174Z,60.49
2023-03-06T18:23:55.119Z,61.97
2023-03-06T18:26:24.569Z,63.81
2023-03-06T18:29:00.650Z,65.43
2023-03-06T18:31:32.336Z,64.22
2023-03-06T18:34:08.996Z,64.80
2023-03-06T18:36:36.998Z,64.34
2023-03-06T18:39:10.173Z,65.55
2023-03-06T18:41:37.317Z,64.83
2023-03-06T18:44:04.720Z,65.66
2023-03-06T18:46:36.771Z,64.91
2023-03-06T18:49:06.500Z,65.40
2023-03-06T18:51:33.916Z,64.79
2023-03-06T18:54:02.084Z,65.03
2023-03-06T18:56:31.221Z,65.38
2023-03-06T18:59:02.744Z,65.32
2023-03-06T19:01:36.479Z,65.03
2023-03-06T19:04:04.522Z,65.14
2023-03-06T19:06:34.497Z,65.66
2023-03-06T19:09:02.437Z,66.05
2023-03-06T19:11:30.071Z,66.29
2023-03-06T19:14:00.201Z,66.26
2023-03-06T19:16:33.210Z,66.53
2023-03-06T19:18:59.975Z,66.64
2023-03-06T19:21:29.861Z,66.97
2023-03-06T19:23:57.417Z,66.64
2023-03-06T19:26:27.164Z,66.80
2023-03-06T19:29:00.929Z,66.94
2023-03-06T19:31:32.520Z,66.99
2023-03-06T19:34:02.349Z,67.58
2023-03-06T19:36:33.697Z,67.90
2023-03-06T19:39:05.386Z,67.97
2023-03-06T19:41:36.415Z,68.36
2023-03-06T19:44:05.023Z,68.76
2023-03-06T19:46:32.241Z,68.72
2023-03-06T19:49:05.278Z,69.32
2023-03-06T19:51:37.204Z,69.23
2023-03-06T19:54:04.972Z,69.29
2023-03-06T19:56:35.982Z,69.26
2023-03-06T19:59:02.700Z,68.72
2023-03-06T20:01:29.398Z,68.63
2023-03-06T20:03:59.163Z,68.91
2023-03-06T20:06:29.921Z,68.73
2023-03-06T20:09:00.348Z,68.59
2023-03-06T20:11:31.983Z,69.56
2023-03-06T20:14:06.600Z,70.29
2023-03-06T20:16:37.329Z,69.41
2023-03-06T20:19:10.696Z,69.98
2023-03-06T20:21:40.639Z,69.99
2023-03-06T20:24:11.289Z,69.08
2023-03-06T20:26:40.172Z,70.12
2023-03-06T20:29:06.863Z,70.21
2023-03-06T20:31:37.757Z,70.84
2023-03-06T20:34:05.038Z,70.96
2023-03-06T20:36:37.226Z,70.07
2023-03-06T20:39:06.738Z,70.05
2023-03-06T20:41:36.320Z,71.02
2023-03-06T20:44:04.531Z,71.19
2023-03-06T20:46:31.714Z,70.55
2023-03-06T20:49:00.285Z,71.09
2023-03-06T20:51:31.518Z,71.03
2023-03-06T20:54:01.032Z,71.25
2023-03-06T20:56:30.627Z,71.00
2023-03-06T20:58:57.867Z,70.50
2023-03-06T21:01:33.801Z,70.51
2023-03-06T21:04:07.119Z,70.59
2023-03-06T21:06:37.283Z,70.81
2023-03-06T21:09:07.460Z,70.73
2023-03-06T21:11:36.756Z,70.65
2023-03-06T21:14:03.421Z,70.75
2023-03-06T21:16:30.507Z,71.07
2023-03-06T21:19:00.393Z,70.16
2023-03-06T21:21:30.783Z,70.07
2023-03-06T21:23:59.007Z,70.00
2023-03-06T21:26:28.687Z,70.69
2023-03-06T21:29:03.007Z,70.58
2023-03-06T21:31:36.859Z,70.57
2023-03-06T21:34:05.243Z,69.88
2023-03-06T21:36:32.181Z,69.95
2023-03-06T21:38:58.891Z,70.47
2023-03-06T21:41:30.684Z,70.71
2023-03-06T21:43:59.664Z,70.60
2023-03-06T21:46:27.837Z,70.78
2023-03-06T21:48:54.632Z,70.51
2023-03-06T21:51:23.771Z,70.28
2023-03-06T21:53:53.500Z,69.92
2023-03-06T21:56:29.904Z,70.01
2023-03-06T21:58:59.769Z,70.24
2023-03-06T22:01:28.750Z,70.41
2023-03-06T22:03:55.807Z,70.29
2023-03-06T22:06:25.495Z,70.31
2023-03-06T22:08:52.939Z,70.46
2023-03-06T22:11:23.280Z,70.19
2023-03-06T22:13:53.592Z,71.07
2023-03-06T22:16:23.854Z,70.87
2023-03-06T22:18:52.057Z,71.08
2023-03-06T22:21:21.897Z,70.61
2023-03-06T22:23:52.238Z,71.19
2023-03-06T22:26:19.696Z,72.20
2023-03-06T22:28:46.931Z,72.01
2023-03-06T22:31:18.212Z,71.66
2023-03-06T22:33:47.604Z,71.85
2023-03-06T22:36:15.817Z,71.37
2023-03-06T22:38:45.174Z,71.55
2023-03-06T22:41:16.523Z,71.36
2023-03-06T22:43:43.773Z,71.15
2023-03-06T22:46:15.357Z,70.97
2023-03-06T22:48:42.997Z,71.37
2023-03-06T22:51:15.552Z,71.04
2023-03-06T22:53:43.154Z,71.01
2023-03-06T22:56:12.317Z,70.39
2023-03-06T22:58:41.522Z,70.67
2023-03-06T23:01:10.822Z,70.93
2023-03-06T23:03:38.751Z,70.68
2023-03-06T23:06:14.530Z,70.51
2023-03-06T23:08:43.156Z,70.53
2023-03-06T23:11:12.553Z,70.38
2023-03-06T23:13:39.629Z,70.22
2023-03-06T23:16:07.605Z,70.14
2023-03-06T23:18:39.650Z,70.07
2023-03-06T23:21:09.116Z,70.13
2023-03-06T23:23:37.012Z,70.23
2023-03-06T23:26:10.537Z,70.24
2023-03-06T23:28:40.386Z,70.40
2023-03-06T23:31:08.255Z,70.06
2023-03-06T23:33:35.274Z,70.16
2023-03-06T23:36:08.632Z,70.05
2023-03-06T23:38:38.382Z,69.95
2023-03-06T23:41:11.633Z,70.34
2023-03-06T23:43:38.578Z,70.30
2023-03-06T23:46:07.095Z,70.65
2023-03-06T23:48:37.281Z,70.40
2023-03-06T23:51:11.865Z,70.63
2023-03-06T23:53:38.532Z,70.09
2023-03-06T23:56:11.166Z,70.44
2023-03-06T23:58:42.186Z,70.62
